sensor_id;sensor_type;location;lat;lon;timestamp;P1;durP1;ratioP1;P2;durP2;ratioP2
54923;SDS011;40825;52.270;20.984;2023-07-02T00:00:19;18.90;;;10.80;;
54923;SDS011;40825;52.270;20.984;2023-07-02T00:03:05;19.70;;;12.00;;
54923;SDS011;40825;52.270;20.984;2023-07-02T00:05:30;19.10;;;11.10;;
54923;SDS011;40825;52.270;20.984;2023-07-02T00:07:56;20.40;;;12.30;;
54923;SDS011;40825;52.270;20.984;2023-07-02T00:10:21;22.00;;;12.30;;
54923;SDS011;40825;52.270;20.984;2023-07-02T00:12:47;19.00;;;11.10;;
54923;SDS011;40825;52.270;20.984;2023-07-02T00:15:12;22.20;;;11.70;;
54923;SDS011;40825;52.270;20.984;2023-07-02T00:17:38;21.80;;;11.30;;
54923;SDS011;40825;52.270;20.984;2023-07-02T00:20:08;19.10;;;11.20;;
54923;SDS011;40825;52.270;20.984;2023-07-02T00:22:40;21.70;;;12.20;;
54923;SDS011;40825;52.270;20.984;2023-07-02T00:25:09;20.40;;;11.50;;
54923;SDS011;40825;52.270;20.984;2023-07-02T00:27:35;21.30;;;12.00;;
54923;SDS011;40825;52.270;20.984;2023-07-02T00:30:03;23.20;;;13.00;;
54923;SDS011;40825;52.270;20.984;2023-07-02T00:32:29;22.10;;;12.10;;
54923;SDS011;40825;52.270;20.984;2023-07-02T00:34:55;23.90;;;12.30;;
54923;SDS011;40825;52.270;20.984;2023-07-02T00:37:20;18.30;;;11.20;;
54923;SDS011;40825;52.270;20.984;2023-07-02T00:39:46;21.10;;;12.40;;
54923;SDS011;40825;52.270;20.984;2023-07-02T00:42:11;21.80;;;12.40;;
54923;SDS011;40825;52.270;20.984;2023-07-02T00:44:37;21.20;;;12.00;;
54923;SDS011;40825;52.270;20.984;2023-07-02T00:47:09;21.70;;;11.60;;
54923;SDS011;40825;52.270;20.984;2023-07-02T00:49:36;22.90;;;12.60;;
54923;SDS011;40825;52.270;20.984;2023-07-02T00:52:02;22.70;;;12.60;;
54923;SDS011;40825;52.270;20.984;2023-07-02T00:54:28;21.00;;;11.60;;
54923;SDS011;40825;52.270;20.984;2023-07-02T00:56:54;20.60;;;13.60;;
54923;SDS011;40825;52.270;20.984;2023-07-02T00:59:20;21.20;;;12.40;;
54923;SDS011;40825;52.270;20.984;2023-07-02T01:02:33;25.80;;;13.50;;
54923;SDS011;40825;52.270;20.984;2023-07-02T01:04:58;21.50;;;12.20;;
54923;SDS011;40825;52.270;20.984;2023-07-02T01:07:25;19.30;;;11.70;;
54923;SDS011;40825;52.270;20.984;2023-07-02T01:09:51;22.00;;;12.40;;
54923;SDS011;40825;52.270;20.984;2023-07-02T01:12:17;23.50;;;12.90;;
54923;SDS011;40825;52.270;20.984;2023-07-02T01:14:47;22.30;;;12.60;;
54923;SDS011;40825;52.270;20.984;2023-07-02T01:17:15;20.20;;;13.00;;
54923;SDS011;40825;52.270;20.984;2023-07-02T01:22:21;21.50;;;11.30;;
54923;SDS011;40825;52.270;20.984;2023-07-02T01:24:49;22.20;;;11.80;;
54923;SDS011;40825;52.270;20.984;2023-07-02T01:27:15;21.80;;;12.60;;
54923;SDS011;40825;52.270;20.984;2023-07-02T01:29:42;23.30;;;13.10;;
54923;SDS011;40825;52.270;20.984;2023-07-02T01:34:35;21.80;;;11.60;;
54923;SDS011;40825;52.270;20.984;2023-07-02T01:37:01;22.30;;;13.20;;
54923;SDS011;40825;52.270;20.984;2023-07-02T01:39:28;23.00;;;13.90;;
54923;SDS011;40825;52.270;20.984;2023-07-02T01:41:55;21.90;;;12.90;;
54923;SDS011;40825;52.270;20.984;2023-07-02T01:44:31;22.70;;;13.30;;
54923;SDS011;40825;52.270;20.984;2023-07-02T01:46:57;22.30;;;12.60;;
54923;SDS011;40825;52.270;20.984;2023-07-02T01:49:23;24.20;;;13.10;;
54923;SDS011;40825;52.270;20.984;2023-07-02T01:51:53;20.30;;;12.70;;
54923;SDS011;40825;52.270;20.984;2023-07-02T01:54:21;23.30;;;12.60;;
54923;SDS011;40825;52.270;20.984;2023-07-02T01:56:47;25.10;;;13.50;;
54923;SDS011;40825;52.270;20.984;2023-07-02T01:59:13;21.70;;;12.40;;
54923;SDS011;40825;52.270;20.984;2023-07-02T02:01:40;20.50;;;13.10;;
54923;SDS011;40825;52.270;20.984;2023-07-02T02:04:06;23.30;;;13.10;;
54923;SDS011;40825;52.270;20.984;2023-07-02T02:06:32;23.50;;;13.20;;
54923;SDS011;40825;52.270;20.984;2023-07-02T02:08:58;22.40;;;13.40;;
54923;SDS011;40825;52.270;20.984;2023-07-02T02:11:24;23.70;;;14.60;;
54923;SDS011;40825;52.270;20.984;2023-07-02T02:13:50;21.00;;;13.00;;
54923;SDS011;40825;52.270;20.984;2023-07-02T02:16:16;23.10;;;13.20;;
54923;SDS011;40825;52.270;20.984;2023-07-02T02:18:41;20.90;;;12.30;;
54923;SDS011;40825;52.270;20.984;2023-07-02T02:21:07;21.90;;;12.70;;
54923;SDS011;40825;52.270;20.984;2023-07-02T02:23:32;21.50;;;11.60;;
54923;SDS011;40825;52.270;20.984;2023-07-02T02:25:58;21.70;;;12.00;;
54923;SDS011;40825;52.270;20.984;2023-07-02T02:28:23;21.60;;;12.00;;
54923;SDS011;40825;52.270;20.984;2023-07-02T02:30:49;20.70;;;11.70;;
54923;SDS011;40825;52.270;20.984;2023-07-02T02:33:14;20.50;;;12.20;;
54923;SDS011;40825;52.270;20.984;2023-07-02T02:35:40;19.60;;;11.10;;
54923;SDS011;40825;52.270;20.984;2023-07-02T02:38:05;22.50;;;12.50;;
54923;SDS011;40825;52.270;20.984;2023-07-02T02:40:31;21.30;;;11.90;;
54923;SDS011;40825;52.270;20.984;2023-07-02T02:42:56;21.90;;;13.50;;
54923;SDS011;40825;52.270;20.984;2023-07-02T02:45:22;23.10;;;12.60;;
54923;SDS011;40825;52.270;20.984;2023-07-02T02:47:47;20.40;;;13.20;;
54923;SDS011;40825;52.270;20.984;2023-07-02T02:50:13;19.90;;;11.50;;
54923;SDS011;40825;52.270;20.984;2023-07-02T02:52:39;22.00;;;11.80;;
54923;SDS011;40825;52.270;20.984;2023-07-02T02:55:05;20.20;;;11.90;;
54923;SDS011;40825;52.270;20.984;2023-07-02T02:57:32;19.10;;;11.60;;
54923;SDS011;40825;52.270;20.984;2023-07-02T02:59:58;19.00;;;11.90;;
54923;SDS011;40825;52.270;20.984;2023-07-02T03:02:24;19.80;;;12.20;;
54923;SDS011;40825;52.270;20.984;2023-07-02T03:04:50;18.80;;;11.30;;
54923;SDS011;40825;52.270;20.984;2023-07-02T03:07:17;20.10;;;11.70;;
54923;SDS011;40825;52.270;20.984;2023-07-02T03:09:43;19.70;;;11.60;;
54923;SDS011;40825;52.270;20.984;2023-07-02T03:12:08;18.10;;;11.10;;
54923;SDS011;40825;52.270;20.984;2023-07-02T03:14:34;19.90;;;11.40;;
54923;SDS011;40825;52.270;20.984;2023-07-02T03:17:00;18.90;;;11.40;;
54923;SDS011;40825;52.270;20.984;2023-07-02T03:19:26;19.20;;;12.00;;
54923;SDS011;40825;52.270;20.984;2023-07-02T03:21:51;18.30;;;10.50;;
54923;SDS011;40825;52.270;20.984;2023-07-02T03:24:17;19.10;;;11.50;;
54923;SDS011;40825;52.270;20.984;2023-07-02T03:26:43;19.90;;;11.60;;
54923;SDS011;40825;52.270;20.984;2023-07-02T03:29:09;18.20;;;10.80;;
54923;SDS011;40825;52.270;20.984;2023-07-02T03:31:35;18.80;;;11.40;;
54923;SDS011;40825;52.270;20.984;2023-07-02T03:34:06;17.70;;;10.60;;
54923;SDS011;40825;52.270;20.984;2023-07-02T03:36:33;16.50;;;10.20;;
54923;SDS011;40825;52.270;20.984;2023-07-02T03:38:59;17.40;;;11.30;;
54923;SDS011;40825;52.270;20.984;2023-07-02T03:41:24;18.10;;;11.10;;
54923;SDS011;40825;52.270;20.984;2023-07-02T03:43:50;18.90;;;10.10;;
54923;SDS011;40825;52.270;20.984;2023-07-02T03:46:15;15.80;;;10.00;;
54923;SDS011;40825;52.270;20.984;2023-07-02T03:48:41;17.20;;;10.50;;
54923;SDS011;40825;52.270;20.984;2023-07-02T03:51:06;17.50;;;10.20;;
54923;SDS011;40825;52.270;20.984;2023-07-02T03:53:32;17.00;;;10.20;;
54923;SDS011;40825;52.270;20.984;2023-07-02T03:55:57;17.00;;;10.10;;
54923;SDS011;40825;52.270;20.984;2023-07-02T03:58:23;19.10;;;11.30;;
54923;SDS011;40825;52.270;20.984;2023-07-02T04:00:48;16.80;;;9.90;;
54923;SDS011;40825;52.270;20.984;2023-07-02T04:05:42;15.80;;;9.80;;
54923;SDS011;40825;52.270;20.984;2023-07-02T04:08:08;16.00;;;9.30;;
54923;SDS011;40825;52.270;20.984;2023-07-02T04:10:34;17.40;;;9.40;;
54923;SDS011;40825;52.270;20.984;2023-07-02T04:13:00;14.90;;;9.00;;
54923;SDS011;40825;52.270;20.984;2023-07-02T04:15:25;19.30;;;9.20;;
54923;SDS011;40825;52.270;20.984;2023-07-02T04:17:52;16.00;;;9.10;;
54923;SDS011;40825;52.270;20.984;2023-07-02T04:20:18;16.90;;;10.10;;
54923;SDS011;40825;52.270;20.984;2023-07-02T04:22:47;13.70;;;8.20;;
54923;SDS011;40825;52.270;20.984;2023-07-02T04:25:13;15.60;;;9.10;;
54923;SDS011;40825;52.270;20.984;2023-07-02T04:27:43;14.30;;;8.50;;
54923;SDS011;40825;52.270;20.984;2023-07-02T04:30:10;15.50;;;9.20;;
54923;SDS011;40825;52.270;20.984;2023-07-02T04:32:37;14.10;;;8.90;;
54923;SDS011;40825;52.270;20.984;2023-07-02T04:35:05;15.60;;;8.30;;
54923;SDS011;40825;52.270;20.984;2023-07-02T04:37:34;16.10;;;8.50;;
54923;SDS011;40825;52.270;20.984;2023-07-02T04:40:00;16.00;;;8.50;;
54923;SDS011;40825;52.270;20.984;2023-07-02T04:42:27;15.20;;;9.10;;
54923;SDS011;40825;52.270;20.984;2023-07-02T04:44:53;16.00;;;8.30;;
54923;SDS011;40825;52.270;20.984;2023-07-02T04:47:19;16.30;;;9.10;;
54923;SDS011;40825;52.270;20.984;2023-07-02T04:49:45;17.50;;;9.40;;
54923;SDS011;40825;52.270;20.984;2023-07-02T04:52:10;15.40;;;8.90;;
54923;SDS011;40825;52.270;20.984;2023-07-02T04:54:36;13.80;;;7.30;;
54923;SDS011;40825;52.270;20.984;2023-07-02T04:57:01;14.30;;;7.80;;
54923;SDS011;40825;52.270;20.984;2023-07-02T04:59:27;12.60;;;7.70;;
54923;SDS011;40825;52.270;20.984;2023-07-02T05:01:53;15.90;;;7.90;;
54923;SDS011;40825;52.270;20.984;2023-07-02T05:04:18;12.50;;;7.60;;
54923;SDS011;40825;52.270;20.984;2023-07-02T05:06:44;12.40;;;6.70;;
54923;SDS011;40825;52.270;20.984;2023-07-02T05:09:09;12.80;;;6.90;;
54923;SDS011;40825;52.270;20.984;2023-07-02T05:11:34;13.30;;;6.70;;
54923;SDS011;40825;52.270;20.984;2023-07-02T05:14:00;11.80;;;6.70;;
54923;SDS011;40825;52.270;20.984;2023-07-02T05:16:25;12.00;;;6.40;;
54923;SDS011;40825;52.270;20.984;2023-07-02T05:18:51;13.80;;;6.40;;
54923;SDS011;40825;52.270;20.984;2023-07-02T05:21:20;12.20;;;6.40;;
54923;SDS011;40825;52.270;20.984;2023-07-02T05:23:46;10.60;;;6.10;;
54923;SDS011;40825;52.270;20.984;2023-07-02T05:26:12;11.70;;;6.20;;
54923;SDS011;40825;52.270;20.984;2023-07-02T05:28:37;11.00;;;5.40;;
54923;SDS011;40825;52.270;20.984;2023-07-02T05:31:03;11.80;;;5.90;;
54923;SDS011;40825;52.270;20.984;2023-07-02T05:33:28;9.70;;;6.50;;
54923;SDS011;40825;52.270;20.984;2023-07-02T05:35:56;10.90;;;6.10;;
54923;SDS011;40825;52.270;20.984;2023-07-02T05:38:21;10.50;;;5.50;;
54923;SDS011;40825;52.270;20.984;2023-07-02T05:40:47;11.10;;;5.70;;
54923;SDS011;40825;52.270;20.984;2023-07-02T05:43:13;11.10;;;7.20;;
54923;SDS011;40825;52.270;20.984;2023-07-02T05:45:38;11.10;;;6.10;;
54923;SDS011;40825;52.270;20.984;2023-07-02T05:48:04;10.20;;;5.40;;
54923;SDS011;40825;52.270;20.984;2023-07-02T05:50:30;11.80;;;5.50;;
54923;SDS011;40825;52.270;20.984;2023-07-02T05:52:55;10.20;;;5.60;;
54923;SDS011;40825;52.270;20.984;2023-07-02T05:55:21;11.40;;;5.40;;
54923;SDS011;40825;52.270;20.984;2023-07-02T05:57:46;9.70;;;5.80;;
54923;SDS011;40825;52.270;20.984;2023-07-02T06:00:12;11.30;;;4.90;;
54923;SDS011;40825;52.270;20.984;2023-07-02T06:02:38;10.40;;;5.60;;
54923;SDS011;40825;52.270;20.984;2023-07-02T06:05:03;9.50;;;5.30;;
54923;SDS011;40825;52.270;20.984;2023-07-02T06:07:29;10.90;;;5.70;;
54923;SDS011;40825;52.270;20.984;2023-07-02T06:09:55;10.10;;;5.90;;
54923;SDS011;40825;52.270;20.984;2023-07-02T06:12:21;10.50;;;5.80;;
54923;SDS011;40825;52.270;20.984;2023-07-02T06:14:47;10.90;;;6.10;;
54923;SDS011;40825;52.270;20.984;2023-07-02T06:17:13;10.60;;;5.80;;
54923;SDS011;40825;52.270;20.984;2023-07-02T06:19:40;10.20;;;5.50;;
54923;SDS011;40825;52.270;20.984;2023-07-02T06:22:06;10.20;;;5.20;;
54923;SDS011;40825;52.270;20.984;2023-07-02T06:24:32;10.80;;;6.00;;
54923;SDS011;40825;52.270;20.984;2023-07-02T06:26:57;10.40;;;5.80;;
54923;SDS011;40825;52.270;20.984;2023-07-02T06:29:23;10.90;;;5.50;;
54923;SDS011;40825;52.270;20.984;2023-07-02T06:31:49;12.20;;;6.30;;
54923;SDS011;40825;52.270;20.984;2023-07-02T06:34:15;10.70;;;6.30;;
54923;SDS011;40825;52.270;20.984;2023-07-02T06:36:40;12.40;;;6.20;;
54923;SDS011;40825;52.270;20.984;2023-07-02T06:39:06;11.80;;;5.70;;
54923;SDS011;40825;52.270;20.984;2023-07-02T06:41:34;12.30;;;6.50;;
54923;SDS011;40825;52.270;20.984;2023-07-02T06:44:00;11.40;;;5.50;;
54923;SDS011;40825;52.270;20.984;2023-07-02T06:46:26;10.80;;;6.00;;
54923;SDS011;40825;52.270;20.984;2023-07-02T06:48:52;10.20;;;5.80;;
54923;SDS011;40825;52.270;20.984;2023-07-02T06:51:18;10.50;;;6.20;;
54923;SDS011;40825;52.270;20.984;2023-07-02T06:53:45;11.40;;;5.70;;
54923;SDS011;40825;52.270;20.984;2023-07-02T06:56:10;9.40;;;5.90;;
54923;SDS011;40825;52.270;20.984;2023-07-02T06:58:36;10.10;;;5.20;;
54923;SDS011;40825;52.270;20.984;2023-07-02T07:01:01;10.90;;;5.90;;
54923;SDS011;40825;52.270;20.984;2023-07-02T07:03:28;9.20;;;4.70;;
54923;SDS011;40825;52.270;20.984;2023-07-02T07:05:53;9.60;;;5.10;;
54923;SDS011;40825;52.270;20.984;2023-07-02T07:08:19;13.70;;;5.30;;
54923;SDS011;40825;52.270;20.984;2023-07-02T07:10:44;8.30;;;4.50;;
54923;SDS011;40825;52.270;20.984;2023-07-02T07:13:10;8.80;;;5.00;;
54923;SDS011;40825;52.270;20.984;2023-07-02T07:15:36;8.30;;;4.50;;
54923;SDS011;40825;52.270;20.984;2023-07-02T07:18:02;8.10;;;4.00;;
54923;SDS011;40825;52.270;20.984;2023-07-02T07:20:29;9.50;;;4.80;;
54923;SDS011;40825;52.270;20.984;2023-07-02T07:22:55;8.00;;;4.20;;
54923;SDS011;40825;52.270;20.984;2023-07-02T07:25:21;9.70;;;4.60;;
54923;SDS011;40825;52.270;20.984;2023-07-02T07:27:46;7.80;;;4.10;;
54923;SDS011;40825;52.270;20.984;2023-07-02T07:30:12;12.70;;;4.80;;
54923;SDS011;40825;52.270;20.984;2023-07-02T07:32:39;9.60;;;4.90;;
54923;SDS011;40825;52.270;20.984;2023-07-02T07:35:07;10.10;;;5.70;;
54923;SDS011;40825;52.270;20.984;2023-07-02T07:37:33;9.20;;;4.80;;
54923;SDS011;40825;52.270;20.984;2023-07-02T07:39:58;8.20;;;4.90;;
54923;SDS011;40825;52.270;20.984;2023-07-02T07:42:24;9.10;;;4.40;;
54923;SDS011;40825;52.270;20.984;2023-07-02T07:44:49;8.90;;;4.40;;
54923;SDS011;40825;52.270;20.984;2023-07-02T07:47:15;8.60;;;4.80;;
54923;SDS011;40825;52.270;20.984;2023-07-02T07:49:40;9.30;;;4.30;;
54923;SDS011;40825;52.270;20.984;2023-07-02T07:52:06;8.40;;;3.70;;
54923;SDS011;40825;52.270;20.984;2023-07-02T07:54:32;8.70;;;4.80;;
54923;SDS011;40825;52.270;20.984;2023-07-02T07:57:00;8.60;;;3.90;;
54923;SDS011;40825;52.270;20.984;2023-07-02T07:59:27;7.60;;;4.00;;
54923;SDS011;40825;52.270;20.984;2023-07-02T08:01:52;8.90;;;4.20;;
54923;SDS011;40825;52.270;20.984;2023-07-02T08:04:18;6.90;;;3.70;;
54923;SDS011;40825;52.270;20.984;2023-07-02T08:06:43;10.50;;;4.20;;
54923;SDS011;40825;52.270;20.984;2023-07-02T08:09:09;7.50;;;3.50;;
54923;SDS011;40825;52.270;20.984;2023-07-02T08:11:35;6.80;;;3.60;;
54923;SDS011;40825;52.270;20.984;2023-07-02T08:14:01;7.10;;;3.40;;
54923;SDS011;40825;52.270;20.984;2023-07-02T08:16:26;9.60;;;3.40;;
54923;SDS011;40825;52.270;20.984;2023-07-02T08:18:52;5.10;;;2.60;;
54923;SDS011;40825;52.270;20.984;2023-07-02T08:21:17;7.10;;;2.90;;
54923;SDS011;40825;52.270;20.984;2023-07-02T08:23:43;6.60;;;3.30;;
54923;SDS011;40825;52.270;20.984;2023-07-02T08:26:09;6.30;;;3.30;;
54923;SDS011;40825;52.270;20.984;2023-07-02T08:28:36;6.50;;;3.70;;
54923;SDS011;40825;52.270;20.984;2023-07-02T08:31:03;8.80;;;3.00;;
54923;SDS011;40825;52.270;20.984;2023-07-02T08:33:29;8.40;;;3.30;;
54923;SDS011;40825;52.270;20.984;2023-07-02T08:35:55;7.80;;;3.50;;
54923;SDS011;40825;52.270;20.984;2023-07-02T08:38:21;7.50;;;2.90;;
54923;SDS011;40825;52.270;20.984;2023-07-02T08:40:46;7.70;;;3.90;;
54923;SDS011;40825;52.270;20.984;2023-07-02T08:43:14;7.10;;;3.00;;
54923;SDS011;40825;52.270;20.984;2023-07-02T08:45:40;7.00;;;3.10;;
54923;SDS011;40825;52.270;20.984;2023-07-02T08:48:07;5.90;;;3.30;;
54923;SDS011;40825;52.270;20.984;2023-07-02T08:50:33;7.30;;;3.00;;
54923;SDS011;40825;52.270;20.984;2023-07-02T08:52:59;6.50;;;3.20;;
54923;SDS011;40825;52.270;20.984;2023-07-02T08:55:24;6.80;;;3.10;;
54923;SDS011;40825;52.270;20.984;2023-07-02T08:57:51;6.60;;;2.80;;
54923;SDS011;40825;52.270;20.984;2023-07-02T09:00:18;4.40;;;2.50;;
54923;SDS011;40825;52.270;20.984;2023-07-02T09:02:44;6.30;;;3.00;;
54923;SDS011;40825;52.270;20.984;2023-07-02T09:05:12;7.00;;;2.70;;
54923;SDS011;40825;52.270;20.984;2023-07-02T09:07:47;5.80;;;3.20;;
54923;SDS011;40825;52.270;20.984;2023-07-02T09:13:02;5.70;;;3.10;;
54923;SDS011;40825;52.270;20.984;2023-07-02T09:15:34;8.20;;;3.30;;
54923;SDS011;40825;52.270;20.984;2023-07-02T09:18:01;10.20;;;3.90;;
54923;SDS011;40825;52.270;20.984;2023-07-02T09:20:32;6.50;;;3.50;;
54923;SDS011;40825;52.270;20.984;2023-07-02T09:22:58;5.90;;;3.10;;
54923;SDS011;40825;52.270;20.984;2023-07-02T09:25:33;5.30;;;3.20;;
54923;SDS011;40825;52.270;20.984;2023-07-02T09:28:11;6.90;;;3.00;;
54923;SDS011;40825;52.270;20.984;2023-07-02T09:30:48;8.10;;;3.90;;
54923;SDS011;40825;52.270;20.984;2023-07-02T09:33:26;5.30;;;3.40;;
54923;SDS011;40825;52.270;20.984;2023-07-02T09:35:53;6.60;;;3.00;;
54923;SDS011;40825;52.270;20.984;2023-07-02T09:38:20;5.30;;;2.70;;
54923;SDS011;40825;52.270;20.984;2023-07-02T09:40:49;5.30;;;2.70;;
54923;SDS011;40825;52.270;20.984;2023-07-02T09:43:17;6.10;;;3.30;;
54923;SDS011;40825;52.270;20.984;2023-07-02T09:45:47;4.90;;;2.70;;
54923;SDS011;40825;52.270;20.984;2023-07-02T09:48:13;5.00;;;3.00;;
54923;SDS011;40825;52.270;20.984;2023-07-02T09:50:47;5.40;;;2.20;;
54923;SDS011;40825;52.270;20.984;2023-07-02T09:53:14;7.80;;;3.00;;
54923;SDS011;40825;52.270;20.984;2023-07-02T09:55:41;5.10;;;2.70;;
54923;SDS011;40825;52.270;20.984;2023-07-02T09:58:08;4.60;;;2.30;;
54923;SDS011;40825;52.270;20.984;2023-07-02T10:00:34;4.90;;;2.90;;
54923;SDS011;40825;52.270;20.984;2023-07-02T10:03:00;5.40;;;2.50;;
54923;SDS011;40825;52.270;20.984;2023-07-02T10:07:58;5.20;;;2.60;;
54923;SDS011;40825;52.270;20.984;2023-07-02T10:10:37;5.50;;;2.30;;
54923;SDS011;40825;52.270;20.984;2023-07-02T10:13:03;4.80;;;2.30;;
54923;SDS011;40825;52.270;20.984;2023-07-02T10:15:29;5.80;;;1.90;;
54923;SDS011;40825;52.270;20.984;2023-07-02T10:17:56;3.60;;;1.90;;
54923;SDS011;40825;52.270;20.984;2023-07-02T10:23:03;3.70;;;2.30;;
54923;SDS011;40825;52.270;20.984;2023-07-02T10:27:56;3.30;;;1.50;;
54923;SDS011;40825;52.270;20.984;2023-07-02T10:30:37;3.60;;;1.80;;
54923;SDS011;40825;52.270;20.984;2023-07-02T10:33:10;5.20;;;1.30;;
54923;SDS011;40825;52.270;20.984;2023-07-02T10:35:36;2.70;;;1.20;;
54923;SDS011;40825;52.270;20.984;2023-07-02T10:38:03;3.00;;;1.00;;
54923;SDS011;40825;52.270;20.984;2023-07-02T10:40:29;3.80;;;1.30;;
54923;SDS011;40825;52.270;20.984;2023-07-02T10:42:55;2.70;;;1.60;;
54923;SDS011;40825;52.270;20.984;2023-07-02T10:45:30;4.60;;;1.40;;
54923;SDS011;40825;52.270;20.984;2023-07-02T10:47:56;2.80;;;1.70;;
54923;SDS011;40825;52.270;20.984;2023-07-02T10:50:22;3.50;;;1.20;;
54923;SDS011;40825;52.270;20.984;2023-07-02T10:52:48;3.70;;;1.20;;
54923;SDS011;40825;52.270;20.984;2023-07-02T10:55:21;2.80;;;1.40;;
54923;SDS011;40825;52.270;20.984;2023-07-02T10:57:49;3.70;;;1.30;;
54923;SDS011;40825;52.270;20.984;2023-07-02T11:00:16;3.80;;;1.30;;
54923;SDS011;40825;52.270;20.984;2023-07-02T11:02:43;3.90;;;1.30;;
54923;SDS011;40825;52.270;20.984;2023-07-02T11:05:09;3.90;;;1.30;;
54923;SDS011;40825;52.270;20.984;2023-07-02T11:07:39;4.10;;;1.60;;
54923;SDS011;40825;52.270;20.984;2023-07-02T11:10:06;3.60;;;1.80;;
54923;SDS011;40825;52.270;20.984;2023-07-02T11:12:32;4.00;;;1.70;;
54923;SDS011;40825;52.270;20.984;2023-07-02T11:15:10;4.50;;;1.70;;
54923;SDS011;40825;52.270;20.984;2023-07-02T11:17:37;3.30;;;1.90;;
54923;SDS011;40825;52.270;20.984;2023-07-02T11:20:06;5.00;;;2.60;;
54923;SDS011;40825;52.270;20.984;2023-07-02T11:22:35;5.00;;;1.70;;
54923;SDS011;40825;52.270;20.984;2023-07-02T11:28:03;5.60;;;1.90;;
54923;SDS011;40825;52.270;20.984;2023-07-02T11:30:29;5.40;;;1.90;;
54923;SDS011;40825;52.270;20.984;2023-07-02T11:32:55;4.50;;;1.90;;
54923;SDS011;40825;52.270;20.984;2023-07-02T11:35:21;3.10;;;1.80;;
54923;SDS011;40825;52.270;20.984;2023-07-02T11:37:48;3.60;;;1.70;;
54923;SDS011;40825;52.270;20.984;2023-07-02T11:40:14;5.00;;;1.80;;
54923;SDS011;40825;52.270;20.984;2023-07-02T11:45:09;2.90;;;1.80;;
54923;SDS011;40825;52.270;20.984;2023-07-02T11:47:35;3.70;;;2.20;;
54923;SDS011;40825;52.270;20.984;2023-07-02T11:50:01;3.40;;;1.50;;
54923;SDS011;40825;52.270;20.984;2023-07-02T11:52:26;4.30;;;2.10;;
54923;SDS011;40825;52.270;20.984;2023-07-02T11:54:52;5.50;;;2.40;;
54923;SDS011;40825;52.270;20.984;2023-07-02T11:57:17;3.90;;;2.50;;
54923;SDS011;40825;52.270;20.984;2023-07-02T11:59:43;3.00;;;1.70;;
54923;SDS011;40825;52.270;20.984;2023-07-02T12:02:08;6.20;;;2.10;;
54923;SDS011;40825;52.270;20.984;2023-07-02T12:04:33;5.90;;;2.40;;
54923;SDS011;40825;52.270;20.984;2023-07-02T12:06:59;4.30;;;2.50;;
54923;SDS011;40825;52.270;20.984;2023-07-02T12:09:29;5.10;;;2.20;;
54923;SDS011;40825;52.270;20.984;2023-07-02T12:11:54;5.20;;;2.20;;
54923;SDS011;40825;52.270;20.984;2023-07-02T12:14:20;3.80;;;2.10;;
54923;SDS011;40825;52.270;20.984;2023-07-02T12:16:45;4.80;;;2.20;;
54923;SDS011;40825;52.270;20.984;2023-07-02T12:19:11;5.00;;;2.10;;
54923;SDS011;40825;52.270;20.984;2023-07-02T12:21:36;4.50;;;2.20;;
54923;SDS011;40825;52.270;20.984;2023-07-02T12:24:02;3.40;;;1.80;;
54923;SDS011;40825;52.270;20.984;2023-07-02T12:26:28;5.10;;;2.70;;
54923;SDS011;40825;52.270;20.984;2023-07-02T12:28:54;3.70;;;2.00;;
54923;SDS011;40825;52.270;20.984;2023-07-02T12:31:20;3.80;;;1.70;;
54923;SDS011;40825;52.270;20.984;2023-07-02T12:33:45;5.10;;;2.20;;
54923;SDS011;40825;52.270;20.984;2023-07-02T12:36:11;5.40;;;1.80;;
54923;SDS011;40825;52.270;20.984;2023-07-02T12:38:36;5.20;;;1.60;;
54923;SDS011;40825;52.270;20.984;2023-07-02T12:41:01;3.00;;;1.90;;
54923;SDS011;40825;52.270;20.984;2023-07-02T12:43:27;4.20;;;1.70;;
54923;SDS011;40825;52.270;20.984;2023-07-02T12:45:52;4.80;;;1.70;;
54923;SDS011;40825;52.270;20.984;2023-07-02T12:48:18;3.90;;;1.60;;
54923;SDS011;40825;52.270;20.984;2023-07-02T12:50:52;3.20;;;1.50;;
54923;SDS011;40825;52.270;20.984;2023-07-02T12:53:22;6.60;;;1.70;;
54923;SDS011;40825;52.270;20.984;2023-07-02T12:55:48;4.90;;;1.70;;
54923;SDS011;40825;52.270;20.984;2023-07-02T12:58:13;2.70;;;1.30;;
54923;SDS011;40825;52.270;20.984;2023-07-02T13:00:39;4.70;;;1.90;;
54923;SDS011;40825;52.270;20.984;2023-07-02T13:03:04;5.90;;;1.40;;
54923;SDS011;40825;52.270;20.984;2023-07-02T13:05:35;3.30;;;1.40;;
54923;SDS011;40825;52.270;20.984;2023-07-02T13:08:01;3.30;;;1.20;;
54923;SDS011;40825;52.270;20.984;2023-07-02T13:10:28;3.20;;;1.00;;
54923;SDS011;40825;52.270;20.984;2023-07-02T13:12:54;2.60;;;1.30;;
54923;SDS011;40825;52.270;20.984;2023-07-02T13:15:20;3.80;;;1.60;;
54923;SDS011;40825;52.270;20.984;2023-07-02T13:17:45;2.00;;;0.80;;
54923;SDS011;40825;52.270;20.984;2023-07-02T13:20:11;3.30;;;1.10;;
54923;SDS011;40825;52.270;20.984;2023-07-02T13:22:38;2.60;;;1.30;;
54923;SDS011;40825;52.270;20.984;2023-07-02T13:25:04;2.50;;;1.00;;
54923;SDS011;40825;52.270;20.984;2023-07-02T13:27:30;4.40;;;2.40;;
54923;SDS011;40825;52.270;20.984;2023-07-02T13:29:56;4.70;;;1.80;;
54923;SDS011;40825;52.270;20.984;2023-07-02T13:32:21;5.10;;;1.60;;
54923;SDS011;40825;52.270;20.984;2023-07-02T13:34:47;6.30;;;1.30;;
54923;SDS011;40825;52.270;20.984;2023-07-02T13:37:12;4.30;;;2.10;;
54923;SDS011;40825;52.270;20.984;2023-07-02T13:39:39;5.40;;;1.10;;
54923;SDS011;40825;52.270;20.984;2023-07-02T13:42:05;3.80;;;1.20;;
54923;SDS011;40825;52.270;20.984;2023-07-02T13:44:31;4.80;;;1.20;;
54923;SDS011;40825;52.270;20.984;2023-07-02T13:46:56;3.20;;;1.00;;
54923;SDS011;40825;52.270;20.984;2023-07-02T13:49:22;4.20;;;1.10;;
54923;SDS011;40825;52.270;20.984;2023-07-02T13:51:48;2.60;;;1.40;;
54923;SDS011;40825;52.270;20.984;2023-07-02T13:54:15;2.80;;;1.40;;
54923;SDS011;40825;52.270;20.984;2023-07-02T13:56:41;2.80;;;1.00;;
54923;SDS011;40825;52.270;20.984;2023-07-02T13:59:07;2.40;;;1.30;;
54923;SDS011;40825;52.270;20.984;2023-07-02T14:01:33;3.90;;;1.30;;
54923;SDS011;40825;52.270;20.984;2023-07-02T14:03:59;3.80;;;1.20;;
54923;SDS011;40825;52.270;20.984;2023-07-02T14:06:25;4.90;;;1.10;;
54923;SDS011;40825;52.270;20.984;2023-07-02T14:08:51;2.10;;;0.90;;
54923;SDS011;40825;52.270;20.984;2023-07-02T14:11:17;3.80;;;1.00;;
54923;SDS011;40825;52.270;20.984;2023-07-02T14:13:44;2.30;;;0.90;;
54923;SDS011;40825;52.270;20.984;2023-07-02T14:16:09;3.40;;;1.30;;
54923;SDS011;40825;52.270;20.984;2023-07-02T14:18:35;3.10;;;0.90;;
54923;SDS011;40825;52.270;20.984;2023-07-02T14:21:00;2.10;;;0.90;;
54923;SDS011;40825;52.270;20.984;2023-07-02T14:23:26;2.10;;;0.90;;
54923;SDS011;40825;52.270;20.984;2023-07-02T14:25:52;3.40;;;1.00;;
54923;SDS011;40825;52.270;20.984;2023-07-02T14:28:17;5.30;;;1.40;;
54923;SDS011;40825;52.270;20.984;2023-07-02T14:30:43;3.90;;;1.10;;
54923;SDS011;40825;52.270;20.984;2023-07-02T14:33:08;3.40;;;1.10;;
54923;SDS011;40825;52.270;20.984;2023-07-02T14:35:34;6.60;;;0.90;;
54923;SDS011;40825;52.270;20.984;2023-07-02T14:38:01;1.70;;;0.80;;
54923;SDS011;40825;52.270;20.984;2023-07-02T14:40:26;4.20;;;1.30;;
54923;SDS011;40825;52.270;20.984;2023-07-02T14:42:52;3.10;;;1.10;;